Have a Safe July 4th! 

Flight Track Log - Related Links

Times and Time Zones

All times are in EDT time to prevent confusion due to time zone crossing. See the N1576C flight status page for this flight to view local times or setup timezone preferences in your user account.

Time Position Orientation Groundspeed Altitude Reporting Facility
EDT Latitude Longitude Course Direction KTS MPH feet Rate Location/Type
Tue 03:08:08 PM 28.3167 -80.8500 270° West 78 90 2,100  Level Orlando TRACON
Tue 03:08:57 PM 28.3167 -80.8667 270° West 75 86 2,200 440 Climbing Orlando TRACON
Tue 03:09:57 PM 28.3000 -80.8667 180° South 108 124 2,900 450 Climbing Orlando TRACON
Tue 03:10:57 PM 28.2833 -80.8333 120° Southeast 115 132 3,100 100 Climbing Orlando TRACON
Tue 03:11:57 PM 28.2667 -80.8000 120° Southeast 118 136 3,100  Level Orlando TRACON
Tue 03:12:57 PM 28.2333 -80.7833 156° South 120 138 3,100  Level Orlando TRACON
Tue 03:13:57 PM 28.2167 -80.7500 120° Southeast 122 140 3,100  Level Orlando TRACON
Tue 03:14:57 PM 28.1833 -80.7167 139° Southeast 123 142 3,100  Level Orlando TRACON
Tue 03:15:57 PM 28.1667 -80.7000 139° Southeast 124 143 3,100 -50 Level Orlando TRACON
Tue 03:16:58 PM 28.1500 -80.6667 120° Southeast 112 129 3,000  Descending Orlando TRACON
Tue 03:17:58 PM 28.1167 -80.6500 156° South 112 129 3,100 50 Climbing Orlando TRACON
Tue 03:18:58 PM 28.1000 -80.6333 139° Southeast 104 120 3,100  Level Orlando TRACON
Tue 03:20:03 PM 28.0833 -80.6500 221° Southwest 73 84 3,100  Level Orlando TRACON
Tue 03:20:58 PM 28.1000 -80.6667 319° Northwest 91 105 3,100 -52 Level Orlando TRACON
Tue 03:21:58 PM 28.1000 -80.6500 90° East 124 143 3,000 -48 Descending Orlando TRACON
Tue 03:23:04 PM 28.0833 -80.6333 139° Southeast 69 79 3,000 48 Level Orlando TRACON
Tue 03:24:04 PM 28.1000 -80.6500 319° Northwest 82 94 3,100 53 Climbing Orlando TRACON
Tue 03:24:58 PM 28.1000 -80.6833 270° West 88 101 3,100  Level Orlando TRACON
Tue 03:25:58 PM 28.1167 -80.6833 360° North 106 122 3,100  Level Orlando TRACON
Tue 03:26:58 PM 28.1000 -80.6500 120° Southeast 121 139 3,100 -50 Level Orlando TRACON
Tue 03:27:59 PM 28.0833 -80.6333 139° Southeast 106 122 3,000 -48 Descending Orlando TRACON
Tue 03:29:04 PM 28.0833 -80.6500 270° West 80 92 3,000 48 Level Orlando TRACON
Tue 03:30:05 PM 28.0833 -80.6833 270° West 85 98 3,100 50 Climbing Orlando TRACON
Tue 03:31:05 PM 28.1000 -80.7000 319° Northwest 81 93 3,100  Level Orlando TRACON
Tue 03:32:05 PM 28.1000 -80.6667 90° East 126 145 3,100 -50 Level Orlando TRACON
Tue 03:33:05 PM 28.1000 -80.6333 90° East 124 143 3,000 -50 Descending Orlando TRACON
Tue 03:34:05 PM 28.0833 -80.6167 139° Southeast 82 94 3,000  Level Orlando TRACON
Tue 03:35:05 PM 28.0833 -80.6500 270° West 73 84 3,000 50 Level Orlando TRACON
Tue 03:36:05 PM 28.1000 -80.6167 60° Northeast 125 144 3,100  Climbing Orlando TRACON
Tue 03:37:05 PM 28.1000 -80.5833 90° East 127 146 3,000  Descending Orlando TRACON
Tue 03:38:05 PM 28.1000 -80.5500 90° East 118 136 3,100  Climbing Orlando TRACON
Tue 03:39:05 PM 28.1000 -80.5167 90° East 119 137 3,000 -50 Descending Orlando TRACON
Tue 03:40:05 PM 28.1000 -80.4833 90° East 122 140 3,000 -238 Level Orlando TRACON
Tue 03:41:11 PM 28.1000 -80.5000 270° West 71 82 2,500 -550 Descending Orlando TRACON
Tue 03:42:05 PM 28.1167 -80.5167 319° Northwest 82 94 1,900 -470 Descending Orlando TRACON
Tue 03:43:06 PM 28.1000 -80.5500 240° Southwest 89 102 1,600 -450 Descending Orlando TRACON
Tue 03:44:05 PM 28.1000 -80.5667 270° West 76 87 1,000 -605 Descending Orlando TRACON
Tue 03:45:05 PM 28.1000 -80.5833 270° West 68 78 400 -261 Descending Orlando TRACON
Tue 03:46:00 PM 28.1000 -80.6000 270° West 71 82 500 109 Climbing Orlando TRACON

Login

Don't have an account? Register now (free) for customized features, flight alerts, and more!